Аэропорт: Шереметьево. Москва

ICAO: UUEE

METAR:
2021-01-27 04:30:00
UUEE 270430Z 17009MPS 9999 -SN OVC038 01/M05 Q0999 R24L/550245 R24C/550236 NOSIG
METAR:
2021-01-27 01:58:00
TAF UUEE 270158Z 2703/2803 19008MPS 9000 FEW007 BKN016 TX01/2703Z TNM04/2803Z TEMPO 2703/2706 20008G14MPS 1000 SHSN BKN005 BKN016CB TEMPO 2706/2712 20008G16MPS BECMG 2713/2716 16003MPS TEMPO 2721/2803 2500 BR BKN006